EDHL/LBC METAR and TAF weather

Enter ICAO airport designator
Station Type Date Time Source
EDHL METAR 2022/11/30 23:20 UTC NOAA

EDHL 302320Z AUTO 10004KT 4800 // FEW007/// OVC043/// 03/03 Q1028


Station Type Date Time Source
EDHL Decoded METAR 2022/11/30 23:20 UTC NOAA

Luebeck-Blankensee, Germany (EDHL) 53-49N 010-42E 15M
Nov 30, 2022 - 06:20 PM EST / 2022.11.30 2320 UTC
Wind: from the E (100 degrees) at 5 MPH (4 KT):0
Visibility: 2 mile(s):0
Sky conditions: overcast
Temperature: 37 F (3 C)
Dew Point: 37 F (3 C)
Relative Humidity: 100%
Pressure (altimeter): 30.36 in. Hg (1028 hPa)
ob: EDHL 302320Z AUTO 10004KT 4800 // FEW007/// OVC043/// 03/03 Q1028
cycle: 23

Station Type Date Time Source
EDHL TAF 2010/02/22 14:20 UTC NOAA

METAR EDHL 221420Z 15004KT 110V180 9999 FEW039 SCT120 05/02 Q0990
RMK X

Example: see airport list